sensor_id;sensor_type;location;lat;lon;timestamp;temperature;humidity
46336;DHT22;31365;48.858;8.530;2023-07-24T00:01:57;19.40;99.90
46336;DHT22;31365;48.858;8.530;2023-07-24T00:04:27;19.40;99.90
46336;DHT22;31365;48.858;8.530;2023-07-24T00:06:58;19.40;99.90
46336;DHT22;31365;48.858;8.530;2023-07-24T00:09:27;19.30;99.90
46336;DHT22;31365;48.858;8.530;2023-07-24T00:11:55;19.40;99.90
46336;DHT22;31365;48.858;8.530;2023-07-24T00:14:24;19.30;99.90
46336;DHT22;31365;48.858;8.530;2023-07-24T00:16:53;19.30;99.90
46336;DHT22;31365;48.858;8.530;2023-07-24T00:19:22;19.20;99.90
46336;DHT22;31365;48.858;8.530;2023-07-24T00:21:52;19.20;99.90
46336;DHT22;31365;48.858;8.530;2023-07-24T00:24:21;19.20;99.90
46336;DHT22;31365;48.858;8.530;2023-07-24T00:26:49;19.10;99.90
46336;DHT22;31365;48.858;8.530;2023-07-24T00:29:18;19.10;99.90
46336;DHT22;31365;48.858;8.530;2023-07-24T00:31:46;19.10;99.90
46336;DHT22;31365;48.858;8.530;2023-07-24T00:34:14;19.10;99.90
46336;DHT22;31365;48.858;8.530;2023-07-24T00:36:43;19.00;99.90
46336;DHT22;31365;48.858;8.530;2023-07-24T00:39:14;19.00;99.90
46336;DHT22;31365;48.858;8.530;2023-07-24T00:41:43;19.00;99.90
46336;DHT22;31365;48.858;8.530;2023-07-24T00:44:11;19.00;99.90
46336;DHT22;31365;48.858;8.530;2023-07-24T00:46:40;19.00;99.90
46336;DHT22;31365;48.858;8.530;2023-07-24T00:49:09;19.00;99.90
46336;DHT22;31365;48.858;8.530;2023-07-24T00:51:38;19.00;99.90
46336;DHT22;31365;48.858;8.530;2023-07-24T00:54:08;18.90;99.90
46336;DHT22;31365;48.858;8.530;2023-07-24T00:56:39;18.90;99.90
46336;DHT22;31365;48.858;8.530;2023-07-24T00:59:08;18.90;99.90
46336;DHT22;31365;48.858;8.530;2023-07-24T01:01:37;18.90;99.90
46336;DHT22;31365;48.858;8.530;2023-07-24T01:04:08;18.90;99.90
46336;DHT22;31365;48.858;8.530;2023-07-24T01:06:37;18.80;99.90
46336;DHT22;31365;48.858;8.530;2023-07-24T01:09:06;18.80;99.90
46336;DHT22;31365;48.858;8.530;2023-07-24T01:11:39;18.80;99.90
46336;DHT22;31365;48.858;8.530;2023-07-24T01:14:18;18.80;99.90
46336;DHT22;31365;48.858;8.530;2023-07-24T01:16:54;18.80;99.90
46336;DHT22;31365;48.858;8.530;2023-07-24T01:19:35;18.80;99.90
46336;DHT22;31365;48.858;8.530;2023-07-24T01:22:12;18.70;99.90
46336;DHT22;31365;48.858;8.530;2023-07-24T01:25:00;18.70;99.90
46336;DHT22;31365;48.858;8.530;2023-07-24T01:27:33;18.70;99.90
46336;DHT22;31365;48.858;8.530;2023-07-24T01:30:02;18.70;99.90
46336;DHT22;31365;48.858;8.530;2023-07-24T01:32:31;18.70;99.90
46336;DHT22;31365;48.858;8.530;2023-07-24T01:35:00;18.70;99.90
46336;DHT22;31365;48.858;8.530;2023-07-24T01:37:30;18.60;99.90
46336;DHT22;31365;48.858;8.530;2023-07-24T01:39:59;18.60;99.90
46336;DHT22;31365;48.858;8.530;2023-07-24T01:42:29;18.60;99.90
46336;DHT22;31365;48.858;8.530;2023-07-24T01:45:01;18.60;99.90
46336;DHT22;31365;48.858;8.530;2023-07-24T01:47:33;18.60;99.90
46336;DHT22;31365;48.858;8.530;2023-07-24T01:50:02;18.60;99.90
46336;DHT22;31365;48.858;8.530;2023-07-24T01:52:31;18.60;99.90
46336;DHT22;31365;48.858;8.530;2023-07-24T01:54:59;18.60;99.90
46336;DHT22;31365;48.858;8.530;2023-07-24T01:57:28;18.50;99.90
46336;DHT22;31365;48.858;8.530;2023-07-24T01:59:56;18.50;99.90
46336;DHT22;31365;48.858;8.530;2023-07-24T02:02:26;18.50;99.90
46336;DHT22;31365;48.858;8.530;2023-07-24T02:04:55;18.50;99.90
46336;DHT22;31365;48.858;8.530;2023-07-24T02:07:23;18.50;99.90
46336;DHT22;31365;48.858;8.530;2023-07-24T02:09:52;18.50;99.90
46336;DHT22;31365;48.858;8.530;2023-07-24T02:12:20;18.50;99.90
46336;DHT22;31365;48.858;8.530;2023-07-24T02:14:49;18.40;99.90
46336;DHT22;31365;48.858;8.530;2023-07-24T02:17:19;18.40;99.90
46336;DHT22;31365;48.858;8.530;2023-07-24T02:19:50;18.40;99.90
46336;DHT22;31365;48.858;8.530;2023-07-24T02:22:19;18.40;99.90
46336;DHT22;31365;48.858;8.530;2023-07-24T02:24:47;18.40;99.90
46336;DHT22;31365;48.858;8.530;2023-07-24T02:27:25;18.40;99.90
46336;DHT22;31365;48.858;8.530;2023-07-24T02:29:57;18.40;99.90
46336;DHT22;31365;48.858;8.530;2023-07-24T02:32:26;18.40;99.90
46336;DHT22;31365;48.858;8.530;2023-07-24T02:34:57;18.40;99.90
46336;DHT22;31365;48.858;8.530;2023-07-24T02:37:25;18.40;99.90
46336;DHT22;31365;48.858;8.530;2023-07-24T02:39:56;18.40;99.90
46336;DHT22;31365;48.858;8.530;2023-07-24T02:42:26;18.40;99.90
46336;DHT22;31365;48.858;8.530;2023-07-24T02:44:55;18.40;99.90
46336;DHT22;31365;48.858;8.530;2023-07-24T02:47:24;18.40;99.90
46336;DHT22;31365;48.858;8.530;2023-07-24T02:49:52;18.40;99.90
46336;DHT22;31365;48.858;8.530;2023-07-24T02:52:22;18.40;99.90
46336;DHT22;31365;48.858;8.530;2023-07-24T02:54:51;18.40;99.90
46336;DHT22;31365;48.858;8.530;2023-07-24T02:57:20;18.30;99.90
46336;DHT22;31365;48.858;8.530;2023-07-24T02:59:48;18.30;99.90
46336;DHT22;31365;48.858;8.530;2023-07-24T03:02:17;18.30;99.90
46336;DHT22;31365;48.858;8.530;2023-07-24T03:04:45;18.30;99.90
46336;DHT22;31365;48.858;8.530;2023-07-24T03:07:14;18.30;99.90
46336;DHT22;31365;48.858;8.530;2023-07-24T03:09:45;18.30;99.90
46336;DHT22;31365;48.858;8.530;2023-07-24T03:12:13;18.30;99.90
46336;DHT22;31365;48.858;8.530;2023-07-24T03:14:43;18.30;99.90
46336;DHT22;31365;48.858;8.530;2023-07-24T03:17:11;18.30;99.90
46336;DHT22;31365;48.858;8.530;2023-07-24T03:19:40;18.30;99.90
46336;DHT22;31365;48.858;8.530;2023-07-24T03:22:09;18.30;99.90
46336;DHT22;31365;48.858;8.530;2023-07-24T03:24:38;18.30;99.90
46336;DHT22;31365;48.858;8.530;2023-07-24T03:27:09;18.30;99.90
46336;DHT22;31365;48.858;8.530;2023-07-24T03:29:38;18.30;99.90
46336;DHT22;31365;48.858;8.530;2023-07-24T03:32:08;18.30;99.90
46336;DHT22;31365;48.858;8.530;2023-07-24T03:34:37;18.30;99.90
46336;DHT22;31365;48.858;8.530;2023-07-24T03:37:05;18.40;99.90
46336;DHT22;31365;48.858;8.530;2023-07-24T03:39:34;18.50;99.90
46336;DHT22;31365;48.858;8.530;2023-07-24T03:42:03;18.50;99.90
46336;DHT22;31365;48.858;8.530;2023-07-24T03:44:34;18.50;99.90
46336;DHT22;31365;48.858;8.530;2023-07-24T03:47:03;18.50;99.90
46336;DHT22;31365;48.858;8.530;2023-07-24T03:49:32;18.50;99.90
46336;DHT22;31365;48.858;8.530;2023-07-24T03:52:02;18.50;99.90
46336;DHT22;31365;48.858;8.530;2023-07-24T03:54:31;18.60;99.90
46336;DHT22;31365;48.858;8.530;2023-07-24T03:56:59;18.60;99.90
46336;DHT22;31365;48.858;8.530;2023-07-24T03:59:27;18.60;99.90
46336;DHT22;31365;48.858;8.530;2023-07-24T04:01:57;18.70;99.90
46336;DHT22;31365;48.858;8.530;2023-07-24T04:04:26;18.70;99.90
46336;DHT22;31365;48.858;8.530;2023-07-24T04:06:55;18.70;99.90
46336;DHT22;31365;48.858;8.530;2023-07-24T04:09:23;18.80;99.90
46336;DHT22;31365;48.858;8.530;2023-07-24T04:11:52;18.80;99.90
46336;DHT22;31365;48.858;8.530;2023-07-24T04:14:21;18.80;99.90
46336;DHT22;31365;48.858;8.530;2023-07-24T04:30:20;18.90;99.90
46336;DHT22;31365;48.858;8.530;2023-07-24T04:32:50;19.00;99.90
46336;DHT22;31365;48.858;8.530;2023-07-24T04:35:19;19.00;99.90
46336;DHT22;31365;48.858;8.530;2023-07-24T04:37:48;19.00;99.90
46336;DHT22;31365;48.858;8.530;2023-07-24T04:40:18;19.00;99.90
46336;DHT22;31365;48.858;8.530;2023-07-24T04:42:46;19.10;99.90
46336;DHT22;31365;48.858;8.530;2023-07-24T04:45:15;19.10;99.90
46336;DHT22;31365;48.858;8.530;2023-07-24T04:47:45;19.20;99.90
46336;DHT22;31365;48.858;8.530;2023-07-24T04:50:14;19.20;99.90
46336;DHT22;31365;48.858;8.530;2023-07-24T04:52:42;19.20;99.90
46336;DHT22;31365;48.858;8.530;2023-07-24T04:55:11;19.30;99.90
46336;DHT22;31365;48.858;8.530;2023-07-24T04:57:39;19.30;99.90
46336;DHT22;31365;48.858;8.530;2023-07-24T05:00:09;19.30;99.90
46336;DHT22;31365;48.858;8.530;2023-07-24T05:02:39;19.40;99.90
46336;DHT22;31365;48.858;8.530;2023-07-24T05:05:10;19.40;99.90
46336;DHT22;31365;48.858;8.530;2023-07-24T05:07:39;19.50;99.90
46336;DHT22;31365;48.858;8.530;2023-07-24T05:10:08;19.40;99.90
46336;DHT22;31365;48.858;8.530;2023-07-24T05:12:37;19.50;99.90
46336;DHT22;31365;48.858;8.530;2023-07-24T05:15:06;19.60;99.90
46336;DHT22;31365;48.858;8.530;2023-07-24T05:17:35;19.60;99.90
46336;DHT22;31365;48.858;8.530;2023-07-24T05:20:05;19.60;99.90
46336;DHT22;31365;48.858;8.530;2023-07-24T05:22:36;19.70;99.90
46336;DHT22;31365;48.858;8.530;2023-07-24T05:25:05;19.80;99.90
46336;DHT22;31365;48.858;8.530;2023-07-24T05:27:34;19.80;99.90
46336;DHT22;31365;48.858;8.530;2023-07-24T05:30:06;19.90;99.90
46336;DHT22;31365;48.858;8.530;2023-07-24T05:32:35;19.90;99.90
46336;DHT22;31365;48.858;8.530;2023-07-24T05:35:04;20.00;99.90
46336;DHT22;31365;48.858;8.530;2023-07-24T05:37:35;20.10;99.90
46336;DHT22;31365;48.858;8.530;2023-07-24T05:40:05;20.10;99.90
46336;DHT22;31365;48.858;8.530;2023-07-24T05:42:34;20.10;99.90
46336;DHT22;31365;48.858;8.530;2023-07-24T05:45:09;20.20;99.90
46336;DHT22;31365;48.858;8.530;2023-07-24T05:47:39;20.20;99.90
46336;DHT22;31365;48.858;8.530;2023-07-24T05:50:08;20.30;99.90
46336;DHT22;31365;48.858;8.530;2023-07-24T05:52:38;20.40;99.90
46336;DHT22;31365;48.858;8.530;2023-07-24T05:55:07;20.40;99.90
46336;DHT22;31365;48.858;8.530;2023-07-24T05:57:37;20.40;99.90
46336;DHT22;31365;48.858;8.530;2023-07-24T06:00:06;20.50;99.90
46336;DHT22;31365;48.858;8.530;2023-07-24T06:02:38;20.50;99.90
46336;DHT22;31365;48.858;8.530;2023-07-24T06:05:07;20.60;99.90
46336;DHT22;31365;48.858;8.530;2023-07-24T06:07:38;20.60;99.90
46336;DHT22;31365;48.858;8.530;2023-07-24T06:10:07;20.70;99.90
46336;DHT22;31365;48.858;8.530;2023-07-24T06:12:36;20.70;99.90
46336;DHT22;31365;48.858;8.530;2023-07-24T06:15:05;20.80;99.90
46336;DHT22;31365;48.858;8.530;2023-07-24T06:17:35;20.80;99.90
46336;DHT22;31365;48.858;8.530;2023-07-24T06:20:04;20.90;99.90
46336;DHT22;31365;48.858;8.530;2023-07-24T06:22:34;20.90;99.90
46336;DHT22;31365;48.858;8.530;2023-07-24T06:25:05;20.90;99.90
46336;DHT22;31365;48.858;8.530;2023-07-24T06:27:34;21.00;99.90
46336;DHT22;31365;48.858;8.530;2023-07-24T06:30:03;21.00;99.90
46336;DHT22;31365;48.858;8.530;2023-07-24T06:32:41;21.10;99.90
46336;DHT22;31365;48.858;8.530;2023-07-24T06:35:10;21.10;99.90
46336;DHT22;31365;48.858;8.530;2023-07-24T06:37:39;21.20;99.90
46336;DHT22;31365;48.858;8.530;2023-07-24T06:40:09;21.20;99.90
46336;DHT22;31365;48.858;8.530;2023-07-24T06:42:38;21.30;99.90
46336;DHT22;31365;48.858;8.530;2023-07-24T06:45:08;21.40;99.90
46336;DHT22;31365;48.858;8.530;2023-07-24T06:47:37;21.50;99.90
46336;DHT22;31365;48.858;8.530;2023-07-24T06:50:07;21.50;99.90
46336;DHT22;31365;48.858;8.530;2023-07-24T06:52:35;21.60;99.90
46336;DHT22;31365;48.858;8.530;2023-07-24T06:55:05;21.60;99.90
46336;DHT22;31365;48.858;8.530;2023-07-24T06:57:35;21.70;99.90
46336;DHT22;31365;48.858;8.530;2023-07-24T07:00:04;21.90;99.90
46336;DHT22;31365;48.858;8.530;2023-07-24T07:02:36;22.00;99.90
46336;DHT22;31365;48.858;8.530;2023-07-24T07:05:05;22.30;99.90
46336;DHT22;31365;48.858;8.530;2023-07-24T07:07:33;22.50;99.90
46336;DHT22;31365;48.858;8.530;2023-07-24T07:10:02;22.60;99.90
46336;DHT22;31365;48.858;8.530;2023-07-24T07:12:32;22.70;99.90
46336;DHT22;31365;48.858;8.530;2023-07-24T07:15:02;22.80;99.90
46336;DHT22;31365;48.858;8.530;2023-07-24T07:17:31;22.80;99.90
46336;DHT22;31365;48.858;8.530;2023-07-24T07:20:00;22.80;99.90
46336;DHT22;31365;48.858;8.530;2023-07-24T07:22:28;22.80;99.90
46336;DHT22;31365;48.858;8.530;2023-07-24T07:24:57;22.80;99.90
46336;DHT22;31365;48.858;8.530;2023-07-24T07:27:25;22.90;99.90
46336;DHT22;31365;48.858;8.530;2023-07-24T07:29:54;22.90;99.90
46336;DHT22;31365;48.858;8.530;2023-07-24T07:32:23;23.10;99.90
46336;DHT22;31365;48.858;8.530;2023-07-24T07:34:52;23.10;99.90
46336;DHT22;31365;48.858;8.530;2023-07-24T07:37:21;23.10;99.90
46336;DHT22;31365;48.858;8.530;2023-07-24T07:39:49;23.00;99.90
46336;DHT22;31365;48.858;8.530;2023-07-24T07:42:17;22.90;99.90
46336;DHT22;31365;48.858;8.530;2023-07-24T07:44:46;22.80;99.90
46336;DHT22;31365;48.858;8.530;2023-07-24T07:47:14;22.70;99.90
46336;DHT22;31365;48.858;8.530;2023-07-24T07:49:44;22.60;99.90
46336;DHT22;31365;48.858;8.530;2023-07-24T07:52:12;22.40;99.90
46336;DHT22;31365;48.858;8.530;2023-07-24T07:54:46;22.30;99.90
46336;DHT22;31365;48.858;8.530;2023-07-24T07:57:15;22.10;99.90
46336;DHT22;31365;48.858;8.530;2023-07-24T07:59:44;21.90;99.90
46336;DHT22;31365;48.858;8.530;2023-07-24T08:02:13;21.80;99.90
46336;DHT22;31365;48.858;8.530;2023-07-24T08:04:41;21.70;99.90
46336;DHT22;31365;48.858;8.530;2023-07-24T08:07:11;21.70;99.90
46336;DHT22;31365;48.858;8.530;2023-07-24T08:09:40;21.70;99.90
46336;DHT22;31365;48.858;8.530;2023-07-24T08:12:08;21.70;99.90
46336;DHT22;31365;48.858;8.530;2023-07-24T08:14:37;21.60;99.90
46336;DHT22;31365;48.858;8.530;2023-07-24T08:17:05;21.60;99.90
46336;DHT22;31365;48.858;8.530;2023-07-24T08:19:34;21.70;99.90
46336;DHT22;31365;48.858;8.530;2023-07-24T08:22:03;21.70;99.90
46336;DHT22;31365;48.858;8.530;2023-07-24T08:24:35;21.70;99.90
46336;DHT22;31365;48.858;8.530;2023-07-24T08:27:04;21.80;99.90
46336;DHT22;31365;48.858;8.530;2023-07-24T08:29:33;21.80;99.90
46336;DHT22;31365;48.858;8.530;2023-07-24T08:32:03;21.90;99.90
46336;DHT22;31365;48.858;8.530;2023-07-24T08:34:32;21.90;99.90
46336;DHT22;31365;48.858;8.530;2023-07-24T08:37:00;22.00;99.90
46336;DHT22;31365;48.858;8.530;2023-07-24T08:39:30;22.00;99.90
46336;DHT22;31365;48.858;8.530;2023-07-24T08:42:07;22.20;99.90
46336;DHT22;31365;48.858;8.530;2023-07-24T08:44:37;22.30;99.90
46336;DHT22;31365;48.858;8.530;2023-07-24T08:47:09;22.40;99.90
46336;DHT22;31365;48.858;8.530;2023-07-24T08:49:39;22.30;99.90
46336;DHT22;31365;48.858;8.530;2023-07-24T08:52:11;22.30;99.90
46336;DHT22;31365;48.858;8.530;2023-07-24T08:55:01;22.30;99.90
46336;DHT22;31365;48.858;8.530;2023-07-24T08:57:32;22.20;99.90
46336;DHT22;31365;48.858;8.530;2023-07-24T09:00:01;22.30;99.90
46336;DHT22;31365;48.858;8.530;2023-07-24T09:02:32;22.30;99.90
46336;DHT22;31365;48.858;8.530;2023-07-24T09:05:04;22.40;99.90
46336;DHT22;31365;48.858;8.530;2023-07-24T09:07:33;22.40;99.90
46336;DHT22;31365;48.858;8.530;2023-07-24T09:10:02;22.50;99.90
46336;DHT22;31365;48.858;8.530;2023-07-24T09:12:33;22.50;99.90
46336;DHT22;31365;48.858;8.530;2023-07-24T09:15:03;22.60;99.90
46336;DHT22;31365;48.858;8.530;2023-07-24T09:17:33;22.80;99.90
46336;DHT22;31365;48.858;8.530;2023-07-24T09:20:03;23.10;99.90
46336;DHT22;31365;48.858;8.530;2023-07-24T09:22:33;23.30;99.90
46336;DHT22;31365;48.858;8.530;2023-07-24T09:25:06;23.50;99.90
46336;DHT22;31365;48.858;8.530;2023-07-24T09:27:37;23.60;99.90
46336;DHT22;31365;48.858;8.530;2023-07-24T09:30:12;23.70;99.90
46336;DHT22;31365;48.858;8.530;2023-07-24T09:32:41;23.90;99.90
46336;DHT22;31365;48.858;8.530;2023-07-24T09:35:16;23.80;99.90
46336;DHT22;31365;48.858;8.530;2023-07-24T09:37:46;23.70;99.90
46336;DHT22;31365;48.858;8.530;2023-07-24T09:40:15;23.60;99.90
46336;DHT22;31365;48.858;8.530;2023-07-24T09:42:45;23.50;99.90
46336;DHT22;31365;48.858;8.530;2023-07-24T09:45:34;23.40;99.90
46336;DHT22;31365;48.858;8.530;2023-07-24T09:48:13;23.30;99.90
46336;DHT22;31365;48.858;8.530;2023-07-24T09:51:02;23.10;99.90
46336;DHT22;31365;48.858;8.530;2023-07-24T09:53:33;23.10;99.90
46336;DHT22;31365;48.858;8.530;2023-07-24T09:56:08;23.00;99.90
46336;DHT22;31365;48.858;8.530;2023-07-24T09:58:39;22.90;99.90
46336;DHT22;31365;48.858;8.530;2023-07-24T10:01:10;22.90;99.90
46336;DHT22;31365;48.858;8.530;2023-07-24T10:03:40;22.80;99.90
46336;DHT22;31365;48.858;8.530;2023-07-24T10:06:16;22.70;99.90
46336;DHT22;31365;48.858;8.530;2023-07-24T10:08:46;22.40;99.90
46336;DHT22;31365;48.858;8.530;2023-07-24T10:11:16;22.30;99.90
46336;DHT22;31365;48.858;8.530;2023-07-24T10:13:47;22.20;99.90
46336;DHT22;31365;48.858;8.530;2023-07-24T10:16:15;22.10;99.90
46336;DHT22;31365;48.858;8.530;2023-07-24T10:18:45;22.00;99.90
46336;DHT22;31365;48.858;8.530;2023-07-24T10:21:17;21.90;99.90
46336;DHT22;31365;48.858;8.530;2023-07-24T10:23:46;21.80;99.90
46336;DHT22;31365;48.858;8.530;2023-07-24T10:26:15;21.70;99.90
46336;DHT22;31365;48.858;8.530;2023-07-24T10:28:49;21.50;99.90
46336;DHT22;31365;48.858;8.530;2023-07-24T10:31:22;21.50;99.90
46336;DHT22;31365;48.858;8.530;2023-07-24T10:33:55;21.30;99.90
46336;DHT22;31365;48.858;8.530;2023-07-24T10:36:24;21.10;99.90
46336;DHT22;31365;48.858;8.530;2023-07-24T10:38:54;20.90;99.90
46336;DHT22;31365;48.858;8.530;2023-07-24T10:41:34;20.80;99.90
46336;DHT22;31365;48.858;8.530;2023-07-24T10:44:05;20.60;99.90
46336;DHT22;31365;48.858;8.530;2023-07-24T10:46:38;20.50;99.90
46336;DHT22;31365;48.858;8.530;2023-07-24T10:49:08;20.40;99.90
46336;DHT22;31365;48.858;8.530;2023-07-24T10:51:37;20.20;99.90
46336;DHT22;31365;48.858;8.530;2023-07-24T10:54:06;20.20;99.90
46336;DHT22;31365;48.858;8.530;2023-07-24T10:56:36;20.10;99.90
46336;DHT22;31365;48.858;8.530;2023-07-24T10:59:07;20.10;99.90
46336;DHT22;31365;48.858;8.530;2023-07-24T11:01:35;20.10;99.90
46336;DHT22;31365;48.858;8.530;2023-07-24T11:04:04;20.10;99.90
46336;DHT22;31365;48.858;8.530;2023-07-24T11:06:32;20.10;99.90
46336;DHT22;31365;48.858;8.530;2023-07-24T11:09:01;20.20;99.90
46336;DHT22;31365;48.858;8.530;2023-07-24T11:11:30;20.30;99.90
46336;DHT22;31365;48.858;8.530;2023-07-24T11:14:01;20.40;99.90
46336;DHT22;31365;48.858;8.530;2023-07-24T11:16:32;20.40;99.90
46336;DHT22;31365;48.858;8.530;2023-07-24T11:19:01;20.50;99.90
46336;DHT22;31365;48.858;8.530;2023-07-24T11:21:31;20.50;99.90
46336;DHT22;31365;48.858;8.530;2023-07-24T11:24:00;20.50;99.90
46336;DHT22;31365;48.858;8.530;2023-07-24T11:26:34;20.70;99.90
46336;DHT22;31365;48.858;8.530;2023-07-24T11:29:11;21.10;99.90
46336;DHT22;31365;48.858;8.530;2023-07-24T11:31:42;21.70;99.90
46336;DHT22;31365;48.858;8.530;2023-07-24T11:34:11;22.10;99.90
46336;DHT22;31365;48.858;8.530;2023-07-24T11:36:41;22.60;99.90
46336;DHT22;31365;48.858;8.530;2023-07-24T11:39:10;23.20;99.90
46336;DHT22;31365;48.858;8.530;2023-07-24T11:41:38;23.70;99.90
46336;DHT22;31365;48.858;8.530;2023-07-24T11:44:08;24.00;99.90
46336;DHT22;31365;48.858;8.530;2023-07-24T11:46:36;23.70;99.90
46336;DHT22;31365;48.858;8.530;2023-07-24T11:49:06;23.10;99.90
46336;DHT22;31365;48.858;8.530;2023-07-24T11:51:37;22.70;99.90
46336;DHT22;31365;48.858;8.530;2023-07-24T11:54:07;22.40;99.90
46336;DHT22;31365;48.858;8.530;2023-07-24T11:56:36;22.00;99.90
46336;DHT22;31365;48.858;8.530;2023-07-24T11:59:11;21.70;99.90
46336;DHT22;31365;48.858;8.530;2023-07-24T12:01:41;21.50;99.90
46336;DHT22;31365;48.858;8.530;2023-07-24T12:04:15;21.40;99.90
46336;DHT22;31365;48.858;8.530;2023-07-24T12:06:44;21.40;99.90
46336;DHT22;31365;48.858;8.530;2023-07-24T12:09:13;21.60;99.90
46336;DHT22;31365;48.858;8.530;2023-07-24T12:11:43;21.60;99.90
46336;DHT22;31365;48.858;8.530;2023-07-24T12:14:13;21.60;99.90
46336;DHT22;31365;48.858;8.530;2023-07-24T12:16:42;21.50;99.90
46336;DHT22;31365;48.858;8.530;2023-07-24T12:19:10;21.40;99.90
46336;DHT22;31365;48.858;8.530;2023-07-24T12:21:41;21.30;99.90
46336;DHT22;31365;48.858;8.530;2023-07-24T12:24:09;21.00;99.90
46336;DHT22;31365;48.858;8.530;2023-07-24T12:26:37;20.90;99.90
46336;DHT22;31365;48.858;8.530;2023-07-24T12:29:06;20.80;99.90
46336;DHT22;31365;48.858;8.530;2023-07-24T12:31:34;20.60;99.90
46336;DHT22;31365;48.858;8.530;2023-07-24T12:34:03;20.40;99.90
46336;DHT22;31365;48.858;8.530;2023-07-24T12:36:32;20.70;99.90
46336;DHT22;31365;48.858;8.530;2023-07-24T12:39:02;21.90;99.90
46336;DHT22;31365;48.858;8.530;2023-07-24T12:41:31;23.40;99.90
46336;DHT22;31365;48.858;8.530;2023-07-24T12:44:00;23.90;99.90
46336;DHT22;31365;48.858;8.530;2023-07-24T12:46:28;23.80;99.90
46336;DHT22;31365;48.858;8.530;2023-07-24T12:48:57;23.30;99.90
46336;DHT22;31365;48.858;8.530;2023-07-24T12:51:25;23.00;99.90
46336;DHT22;31365;48.858;8.530;2023-07-24T12:53:54;22.60;99.90
46336;DHT22;31365;48.858;8.530;2023-07-24T12:56:41;22.40;99.90
46336;DHT22;31365;48.858;8.530;2023-07-24T12:59:09;22.70;99.90
46336;DHT22;31365;48.858;8.530;2023-07-24T13:01:38;23.20;99.90
46336;DHT22;31365;48.858;8.530;2023-07-24T13:04:07;24.50;99.90
46336;DHT22;31365;48.858;8.530;2023-07-24T13:06:36;25.80;99.90
46336;DHT22;31365;48.858;8.530;2023-07-24T13:09:05;26.40;99.90
46336;DHT22;31365;48.858;8.530;2023-07-24T13:11:34;26.90;99.90
46336;DHT22;31365;48.858;8.530;2023-07-24T13:14:04;26.80;99.90
46336;DHT22;31365;48.858;8.530;2023-07-24T13:16:32;26.00;99.90
46336;DHT22;31365;48.858;8.530;2023-07-24T13:19:01;25.20;99.90
46336;DHT22;31365;48.858;8.530;2023-07-24T13:21:29;24.30;99.90
46336;DHT22;31365;48.858;8.530;2023-07-24T13:23:58;23.80;99.90
46336;DHT22;31365;48.858;8.530;2023-07-24T13:26:26;23.80;99.90
46336;DHT22;31365;48.858;8.530;2023-07-24T13:28:55;23.90;99.90
46336;DHT22;31365;48.858;8.530;2023-07-24T13:31:25;24.90;99.90
46336;DHT22;31365;48.858;8.530;2023-07-24T13:33:56;26.30;99.90
46336;DHT22;31365;48.858;8.530;2023-07-24T13:36:24;27.80;99.90
46336;DHT22;31365;48.858;8.530;2023-07-24T13:41:22;29.60;99.90
46336;DHT22;31365;48.858;8.530;2023-07-24T13:43:50;30.00;99.90
46336;DHT22;31365;48.858;8.530;2023-07-24T13:46:19;30.80;99.90
46336;DHT22;31365;48.858;8.530;2023-07-24T13:48:49;31.50;99.90
46336;DHT22;31365;48.858;8.530;2023-07-24T13:51:17;31.80;99.90
46336;DHT22;31365;48.858;8.530;2023-07-24T13:53:45;32.20;97.50
46336;DHT22;31365;48.858;8.530;2023-07-24T13:56:15;32.40;97.00
46336;DHT22;31365;48.858;8.530;2023-07-24T13:58:45;32.30;96.40
46336;DHT22;31365;48.858;8.530;2023-07-24T14:01:14;32.40;95.80
46336;DHT22;31365;48.858;8.530;2023-07-24T14:03:43;32.30;96.10
46336;DHT22;31365;48.858;8.530;2023-07-24T14:06:13;32.10;94.70
46336;DHT22;31365;48.858;8.530;2023-07-24T14:08:41;32.00;94.90
46336;DHT22;31365;48.858;8.530;2023-07-24T14:11:11;32.30;94.90
46336;DHT22;31365;48.858;8.530;2023-07-24T14:13:39;32.50;93.60
46336;DHT22;31365;48.858;8.530;2023-07-24T14:16:08;32.50;94.30
46336;DHT22;31365;48.858;8.530;2023-07-24T14:18:37;32.80;93.90
46336;DHT22;31365;48.858;8.530;2023-07-24T14:21:05;32.40;94.00
46336;DHT22;31365;48.858;8.530;2023-07-24T14:23:36;31.70;94.30
46336;DHT22;31365;48.858;8.530;2023-07-24T14:26:04;31.70;94.60
46336;DHT22;31365;48.858;8.530;2023-07-24T14:28:33;32.30;94.00
46336;DHT22;31365;48.858;8.530;2023-07-24T14:31:02;32.60;93.60
46336;DHT22;31365;48.858;8.530;2023-07-24T14:33:31;32.70;93.40
46336;DHT22;31365;48.858;8.530;2023-07-24T14:36:00;32.70;93.10
46336;DHT22;31365;48.858;8.530;2023-07-24T14:38:29;32.40;93.10
46336;DHT22;31365;48.858;8.530;2023-07-24T14:40:59;32.30;93.50
46336;DHT22;31365;48.858;8.530;2023-07-24T14:43:27;32.20;93.80
46336;DHT22;31365;48.858;8.530;2023-07-24T14:45:55;32.30;93.30
46336;DHT22;31365;48.858;8.530;2023-07-24T14:48:24;32.50;93.10
46336;DHT22;31365;48.858;8.530;2023-07-24T14:50:52;32.40;93.10
46336;DHT22;31365;48.858;8.530;2023-07-24T14:53:22;32.00;93.70
46336;DHT22;31365;48.858;8.530;2023-07-24T14:55:51;32.00;93.40
46336;DHT22;31365;48.858;8.530;2023-07-24T14:58:21;32.20;93.20
46336;DHT22;31365;48.858;8.530;2023-07-24T15:00:49;31.70;92.90
46336;DHT22;31365;48.858;8.530;2023-07-24T15:03:18;30.70;93.80
46336;DHT22;31365;48.858;8.530;2023-07-24T15:05:47;29.70;95.00
46336;DHT22;31365;48.858;8.530;2023-07-24T15:08:15;28.90;95.80
46336;DHT22;31365;48.858;8.530;2023-07-24T15:10:48;28.30;96.40
46336;DHT22;31365;48.858;8.530;2023-07-24T15:13:17;27.70;97.30
46336;DHT22;31365;48.858;8.530;2023-07-24T15:15:47;27.20;97.60
46336;DHT22;31365;48.858;8.530;2023-07-24T15:18:15;26.80;98.30
46336;DHT22;31365;48.858;8.530;2023-07-24T15:20:44;26.40;98.60
46336;DHT22;31365;48.858;8.530;2023-07-24T15:23:12;25.90;99.30
46336;DHT22;31365;48.858;8.530;2023-07-24T15:25:41;25.60;99.80
46336;DHT22;31365;48.858;8.530;2023-07-24T15:28:10;25.20;99.90
46336;DHT22;31365;48.858;8.530;2023-07-24T15:30:39;25.00;99.90
46336;DHT22;31365;48.858;8.530;2023-07-24T15:33:09;24.60;99.90
46336;DHT22;31365;48.858;8.530;2023-07-24T15:35:38;24.40;99.90
46336;DHT22;31365;48.858;8.530;2023-07-24T15:38:06;24.30;99.90
46336;DHT22;31365;48.858;8.530;2023-07-24T15:40:35;24.00;99.90
46336;DHT22;31365;48.858;8.530;2023-07-24T15:43:04;23.70;99.90
46336;DHT22;31365;48.858;8.530;2023-07-24T15:45:33;23.50;99.90
46336;DHT22;31365;48.858;8.530;2023-07-24T15:48:02;23.20;99.90
46336;DHT22;31365;48.858;8.530;2023-07-24T15:50:34;23.00;99.90
46336;DHT22;31365;48.858;8.530;2023-07-24T15:53:02;22.70;99.90
46336;DHT22;31365;48.858;8.530;2023-07-24T15:55:31;22.50;99.90
46336;DHT22;31365;48.858;8.530;2023-07-24T15:57:59;22.40;99.90
46336;DHT22;31365;48.858;8.530;2023-07-24T16:00:29;22.10;99.90
46336;DHT22;31365;48.858;8.530;2023-07-24T16:03:00;21.80;99.90